Tiempo atmosférico en la estación meteorológica de Renteria, Gipuzkoa (165 m.)



Fecha
DESCASC
Temp. máxima en grados centígrados (hora)
DESCASC
Temp. mínima en grados centígrados (hora)
DESCASC
Temp. media en grados centígrados
DESCASC
Racha de viento máxima en m/sg (hora)
DESCASC
Velocidad máxima media en intervalos de 10 minutos(hora)
DESCASC
Precipitaciones diarias en mm
DESCASC
Precipitaciones de 00:00 a 06:00 en mm
DESCASC
Precipitaciones de 06:00 a 12:00 en mm
DESCASC
Precipitaciones de 12:00 a 18:00 en mm
DESCASC
Precipitaciones de 18:00 a 24:00 en mm
DESCASC
25-04-2019 19.5 (16:30) 10.4 (04:30) 14.9 18.89 (11:20) 10.83 (10:40) 3.2 3.2 0 0 0
24-04-2019 17.1 (17:10) 7.1 (07:50) 12.1 23.61 (14:40) 13.89 (15:20) 7.8 0 0 0.2 7.6
23-04-2019 20.9 (13:50) 10.2 (23:59) 15.5 11.94 (15:10) 5.56 (02:50) 2.8 0 0 0.2 2.6
22-04-2019 22.3 (18:30) 9.5 (00:00) 15.9 9.17 (18:30) 4.72 (18:40) 0 0 0 0 0
21-04-2019 19.2 (15:50) 6 (00:00) 12.6 5 (16:40) 2.78 (16:40) 0.4 0 0 0.4 0
20-04-2019 20.3 (16:50) 8.9 (00:00) 14.6 6.39 (17:20) 2.78 (17:10) 0 0 0 0 0
19-04-2019 21.9 (17:20) 10.3 (00:00) 16.1 5.28 (14:50) 2.78 (14:40) 0 0 0 0 0
18-04-2019 20.5 (00:00) 12.3 (00:00) 16.4 11.11 (08:50) 6.67 (08:50) 0.2 0 0 0.2 0
17-04-2019 22.8 (17:40) 11.4 (00:00) 17.1 21.11 (11:40) 9.17 (10:10) 0 0 0 0 0
16-04-2019 20.2 (16:10) 10 (00:00) 15.1 6.67 (18:30) 2.78 (14:40) 0.8 0.6 0.2 0 0
15-04-2019 24.5 (17:20) 9.5 (00:00) 17 13.61 (17:40) 6.39 (11:00) 29.4 0 0 0 29.4
14-04-2019 19.7 (14:50) 7.1 (00:00) 13.4 4.17 (14:20) 1.67 (23:40) 0 0 0 0 0
13-04-2019 21.4 (19:20) 1.5 (00:00) 11.4 4.44 (16:50) 2.78 (17:40) 0 0 0 0 0
12-04-2019 15.8 (14:30) 5.8 (00:00) 10.8 6.67 (13:50) 3.61 (13:50) 1.6 1.6 0 0 0
11-04-2019 11.9 (14:40) 7.7 (00:00) 9.8 5.56 (00:50) 2.5 (01:20) -- 4.4 -- 1.2 0.2
10-04-2019 14.5 (16:00) 7 (00:00) 10.8 7.22 (16:30) 3.33 (23:50) 11.6 0 6.8 0.2 4.6
09-04-2019 18.2 (12:40) 4.3 (00:00) 11.3 8.33 (13:20) 4.44 (13:20) 10.6 0 0 0.4 10.2
08-04-2019 14.7 (17:50) 7.4 (00:00) 11 9.44 (06:50) 4.72 (06:50) 11.6 0 3.2 8.4 0
07-04-2019 14.6 (16:30) 6.5 (00:00) 10.6 3.61 (16:20) 2.22 (21:20) 6.4 0.6 1.6 4.2 0
06-04-2019 17.6 (17:10) 6 (00:00) 11.8 11.39 (15:40) 5.83 (15:10) 5.2 2.8 0 0 2.4
05-04-2019 14.1 (15:30) 6.9 (00:00) 10.5 14.72 (06:30) 6.67 (10:20) 4.2 0 0 0.8 3.4
04-04-2019 16.1 (16:30) 3.3 (00:00) 9.7 7.5 (12:00) 4.44 (12:00) 2.2 1.4 0.8 0 0
03-04-2019 9.4 (00:00) 3.6 (00:00) 6.5 13.61 (21:50) 3.89 (14:20) 16.2 3.8 3.2 5.2 4
02-04-2019 16.4 (13:50) 9.4 (00:00) 12.9 7.22 (10:50) 3.06 (15:00) 12.6 3 0 0 9.6
01-04-2019 19.5 (16:20) 9.4 (00:00) 14.4 8.89 (01:20) 5.83 (01:40) 4.9 2.6 2.3 0 0
31-03-2019 22 (13:40) 7.6 (00:00) 14.8 6.39 (16:00) 3.89 (15:10) 0 0 0 0 0
30-03-2019 23 (15:40) 9.4 (00:00) 16.2 11.39 (04:50) 6.11 (08:20) 0 0 0 0 0
29-03-2019 22.4 (15:40) 1.9 (00:00) 12.1 11.67 (14:50) 5.56 (16:20) 0 0 0 0 0
28-03-2019 16.7 (11:40) 4.2 (00:00) 10.5 5.83 (14:30) 2.22 (13:10) 0 0 0 0 0
27-03-2019 15.2 (13:40) 0.7 (00:00) 7.9 6.67 (18:10) 3.61 (17:20) 0 0 0 0 0

Gráficas

Temp. máximas Temp. mínimas Temp. medias Precipitaciones Rachas de viento máximas Velocidades máximas media en intervalos de 10 minutos

Datos horarios

Fecha y hora oficial Temperatura (ºC) Velocidad del viento (km/h) Dirección del viento Racha (km/h) Dirección de racha Precipitación (mm) Presión (hPa) Tendencia (hPa) Humedad (%)
2019-04-25 23:00:00 14 17 Sudoeste 37 Sur 0 -- -- 47
2019-04-25 22:00:00 14.6 14 Sur 49 Sur 0 -- -- 46
2019-04-25 21:00:00 14.9 18 Sur 40 Sur 0 -- -- 44
2019-04-25 20:00:00 16.8 11 Sur 53 Sur 0 -- -- 41
2019-04-25 19:00:00 18.6 16 Sur 31 Sur 0 -- -- 39
2019-04-25 18:00:00 17.3 14 Sur 48 Sudoeste 0 -- -- 35
2019-04-25 17:00:00 18.7 19 Sur 53 Sudoeste 0 -- -- 31
2019-04-25 16:00:00 18.9 14 Sudoeste 45 Sudoeste 0 -- -- 39
2019-04-25 15:00:00 19 13 Sur 48 Sur 0 -- -- 32
2019-04-25 14:00:00 18 24 Sur 50 Sudoeste 0 -- -- 36
2019-04-25 13:00:00 17.6 15 Sur 61 Sur 0 -- -- 44
2019-04-25 12:00:00 16.8 24 Sur 68 Sudeste 0 -- -- 49
2019-04-25 11:00:00 14.2 38 Sur 67 Sur 0 -- -- 51
2019-04-25 10:00:00 13.8 18 Sur 41 Sur 0 -- -- 60
2019-04-25 09:00:00 12.9 20 Sur 55 Sur 0 -- -- 53
2019-04-25 08:00:00 11.2 23 Sur 52 Sudoeste 0 -- -- 61
2019-04-25 07:00:00 11 22 Sur 47 Sur 0 -- -- 64
2019-04-25 06:00:00 11.4 24 Sur 51 Sur 0 -- -- 68
2019-04-25 05:00:00 10.8 21 Sur 50 Sur 0.6 -- -- 80
2019-04-25 04:00:00 10.6 7 Sudoeste 30 Sur 1.4 -- -- 97
2019-04-25 03:00:00 10.8 4 Noroeste 14 Sudeste 0.8 -- -- 96
2019-04-25 02:00:00 11.9 4 Sudeste 16 Este 0.4 -- -- 85
2019-04-25 01:00:00 12.6 9 Sur 20 Sudeste 0 -- -- 75
2019-04-25 00:00:00 12.3 8 Sur 35 Sudoeste 0 -- -- 77
2019-04-24 23:00:00 12.6 10 Sur 42 Sur 0 -- -- 76
2019-04-24 22:00:00 11.6 18 Sur 50 Sur 1.6 -- -- 84
2019-04-24 21:00:00 11.6 11 Sur 35 Sudoeste 6 -- -- 93
2019-04-24 20:00:00 13.9 16 Sur 52 Sudeste 0 -- -- 73
2019-04-24 19:00:00 14.6 16 Sur 42 Sudoeste 0 -- -- 62
2019-04-24 18:00:00 15.3 20 Sudeste 74 Sudoeste 0 -- -- 57
2019-04-24 17:00:00 16.7 26 Sur 66 Este 0 -- -- 51
2019-04-24 16:00:00 15.3 20 Sur 85 Sur 0.2 -- -- 56
2019-04-24 15:00:00 15 44 Sur 85 Sudoeste 0 -- -- 54
2019-04-24 14:00:00 14.6 29 Sur 71 Sur 0 -- -- 58
2019-04-24 13:00:00 12.6 22 Sur 62 Sudeste 0 -- -- 58
2019-04-24 12:00:00 11.8 17 Sur 51 Sur 0 -- -- 62
2019-04-24 11:00:00 12 19 Sur 42 Sudeste 0 -- -- 62
2019-04-24 10:00:00 12.4 9 Sudeste 40 Sur 0 -- -- 60
2019-04-24 09:00:00 10.6 10 Sudeste 23 Este 0 -- -- 73
2019-04-24 08:00:00 7.1 5 Noroeste 13 Noroeste 0 -- -- 95
2019-04-24 07:00:00 7.7 4 Noroeste 15 Sudeste 0 -- -- 93
2019-04-24 06:00:00 7.5 2 Oeste 11 Este 0 -- -- 98
2019-04-24 05:00:00 8.2 0 Calma 4 Sur 0 -- -- 97
2019-04-24 04:00:00 8.7 0 Calma 6 Noroeste 0 -- -- 96
2019-04-24 03:00:00 8.9 3 Norte 7 Nordeste 0 -- -- 94
2019-04-24 02:00:00 9 2 Sur 10 Norte 0 -- -- 92
2019-04-24 01:00:00 9.5 5 Norte 22 Noroeste 0 -- -- 89
2019-04-24 00:00:00 10.2 9 Oeste 29 Noroeste 0.2 -- -- 91
2019-04-23 23:00:00 10.6 2 Sudoeste 17 Nordeste 0 -- -- 92
2019-04-23 22:00:00 11.2 5 Sudeste 26 Sudeste 0 -- -- 80
2019-04-23 21:00:00 12.2 5 Oeste 17 Norte 0.2 -- -- 80
2019-04-23 20:00:00 13.2 3 Norte 9 Nordeste 2.2 -- -- 91
2019-04-23 19:00:00 14.1 5 Norte 16 Norte 0 -- -- 88
2019-04-23 18:00:00 13.9 9 Norte 17 Norte 0 -- -- 87
2019-04-23 17:00:00 14.8 11 Norte 31 Sudeste 0.2 -- -- 83
2019-04-23 16:00:00 18.8 6 Este 43 Sudeste 0 -- -- 55
2019-04-23 15:00:00 19.9 10 Sudeste 30 Sudeste 0 -- -- 51
2019-04-23 14:00:00 20.8 12 Sudeste 32 Sudeste 0 -- -- 47
2019-04-23 13:00:00 18.6 3 Sudoeste 24 Sur 0 -- -- 55
2019-04-23 12:00:00 18.5 9 Sudeste 24 Sudeste 0 -- -- 56
2019-04-23 11:00:00 17.8 10 Sur 24 Sudeste 0 -- -- 57
2019-04-23 10:00:00 16.8 14 Sudeste 32 Sudeste 0 -- -- 61
2019-04-23 09:00:00 16.1 10 Este 21 Sudeste 0 -- -- 61
2019-04-23 08:00:00 15.8 10 Sudeste 26 Sur 0 -- -- 60
2019-04-23 07:00:00 15.8 15 Sur 32 Sudeste 0 -- -- 59
2019-04-23 06:00:00 15.7 13 Sudeste 28 Sudeste 0 -- -- 60
2019-04-23 05:00:00 15.5 9 Sur 33 Sudeste 0 -- -- 62
2019-04-23 04:00:00 15.9 17 Sur 41 Sudeste 0 -- -- 59
2019-04-23 03:00:00 16.4 20 Sur 37 Sudeste 0 -- -- 56
2019-04-23 02:00:00 16.8 13 Sudeste 32 Sur 0 -- -- 54
2019-04-23 01:00:00 17 14 Sur 28 Sur 0 -- -- 52
2019-04-23 00:00:00 17.6 12 Sur 27 Sudeste 0 -- -- 50
2019-04-22 23:00:00 18.2 9 Sudeste 18 Sudeste 0 -- -- 47
2019-04-22 22:00:00 18.7 7 Sur 18 Sudeste 0 -- -- 48
2019-04-22 21:00:00 19.1 11 Sur 20 Sudeste 0 -- -- 47
2019-04-22 20:00:00 20.2 6 Sudoeste 27 Sur 0 -- -- 45
2019-04-22 19:00:00 21.8 14 Sur 33 Sur 0 -- -- 42
2019-04-22 18:00:00 21.6 2 Nordeste 12 Norte 0 -- -- 52
2019-04-22 17:00:00 20.9 5 Noroeste 16 Norte 0 -- -- 53
2019-04-22 16:00:00 20.7 10 Noroeste 17 Noroeste 0 -- -- 60
2019-04-22 15:00:00 20.4 4 Noroeste 16 Norte 0 -- -- 60
2019-04-22 14:00:00 21.2 8 Norte 17 Norte 0 -- -- 55
2019-04-22 13:00:00 21.4 4 Norte 12 Norte 0 -- -- 55
2019-04-22 12:00:00 18.4 3 Norte 7 Nordeste 0 -- -- 57
2019-04-22 11:00:00 16.4 4 Norte 7 Norte 0 -- -- 74
2019-04-22 10:00:00 13 3 Norte 10 Nordeste 0 -- -- 85
2019-04-22 09:00:00 10.2 0 Calma 6 Este 0 -- -- 96
2019-04-22 08:00:00 9.6 2 Sudeste 8 Sudeste 0 -- -- 99
2019-04-22 07:00:00 9.6 3 Sudeste 8 Este 0 -- -- 100
2019-04-22 06:00:00 9.7 2 Sudoeste 4 Sudoeste 0 -- -- 99
2019-04-22 05:00:00 10 0 Calma 5 Este 0 -- -- 99
2019-04-22 04:00:00 10.1 2 Sur 4 Sudoeste 0 -- -- 99
2019-04-22 03:00:00 10.1 0 Calma 3 Sur 0 -- -- 99
2019-04-22 02:00:00 10.1 0 Calma 3 Noroeste 0 -- -- 99
2019-04-22 01:00:00 10.2 0 Calma 4 Sudeste 0 -- -- 98
2019-04-22 00:00:00 10.3 2 Sur 5 Noroeste 0 -- -- 97
2019-04-21 23:00:00 10.9 3 Sudeste 5 Sudeste 0 -- -- 96
2019-04-21 22:00:00 11.9 3 Sudoeste 6 Sudoeste 0 -- -- 93
2019-04-21 21:00:00 13 5 Sudoeste 9 Oeste 0 -- -- 85
2019-04-21 20:00:00 14.1 3 Noroeste 14 Noroeste 0 -- -- 82
2019-04-21 19:00:00 14.5 0 Calma 6 Noroeste 0 -- -- 83
2019-04-21 18:00:00 14.8 0 Calma 9 Norte 0.2 -- -- 85
2019-04-21 17:00:00 15.6 6 Noroeste 18 Noroeste 0.2 -- -- 75
2019-04-21 16:00:00 18.6 3 Noroeste 13 Sudoeste 0 -- -- 59
2019-04-21 15:00:00 17.5 2 Noroeste 12 Norte 0 -- -- 70
2019-04-21 14:00:00 16.6 6 Noroeste 15 Norte 0 -- -- 69
2019-04-21 13:00:00 16.5 4 Nordeste 8 Nordeste 0 -- -- 69
2019-04-21 12:00:00 12.7 0 Calma 4 Norte 0 -- -- 82
2019-04-21 11:00:00 10.5 0 Calma 3 Noroeste 0 -- -- 89
2019-04-21 10:00:00 9.2 0 Calma 3 Sur 0 -- -- 100
2019-04-21 09:00:00 7.3 0 Calma 4 Este 0 -- -- 100
2019-04-21 08:00:00 6.5 2 Sudeste 6 Sudoeste 0 -- -- 100
2019-04-21 07:00:00 6.1 0 Calma 4 Noroeste 0 -- -- 99
2019-04-21 06:00:00 6.5 0 Calma 5 Sudoeste 0 -- -- 99
2019-04-21 05:00:00 6.7 0 Calma 5 Sudoeste 0 -- -- 98
2019-04-21 04:00:00 7.2 2 Sur 7 Sudeste 0 -- -- 98
2019-04-21 03:00:00 7.9 0 Calma 8 Noroeste 0 -- -- 97
2019-04-21 02:00:00 8.4 0 Calma 10 Noroeste 0 -- -- 97
2019-04-21 01:00:00 9.2 2 Nordeste 6 Noroeste 0 -- -- 96
2019-04-21 00:00:00 10.1 3 Oeste 9 Noroeste 0 -- -- 92
2019-04-20 23:00:00 11.3 2 Sur 8 Noroeste 0 -- -- 88
2019-04-20 22:00:00 13 0 Calma 5 Sudoeste 0 -- -- 80
2019-04-20 21:00:00 15.1 0 Calma 6 Oeste 0 -- -- 70
2019-04-20 20:00:00 17.2 0 Calma 10 Nordeste 0 -- -- 61
2019-04-20 19:00:00 18.3 3 Sudoeste 19 Sudoeste 0 -- -- 57
2019-04-20 18:00:00 19.8 3 Sur 23 Oeste 0 -- -- 56
2019-04-20 17:00:00 19.9 8 Oeste 19 Sudoeste 0 -- -- 51
2019-04-20 16:00:00 18.7 9 Noroeste 17 Noroeste 0 -- -- 48
2019-04-20 15:00:00 20.1 5 Norte 14 Norte 0 -- -- 58
2019-04-20 14:00:00 19.3 4 Oeste 17 Noroeste 0 -- -- 57
2019-04-20 13:00:00 19.2 4 Oeste 22 Noroeste 0 -- -- 66
2019-04-20 12:00:00 19 5 Noroeste 16 Noroeste 0 -- -- 62
2019-04-20 11:00:00 17.6 4 Nordeste 12 Noroeste 0 -- -- 68
2019-04-20 10:00:00 13.8 2 Nordeste 6 Norte 0 -- -- 90
2019-04-20 09:00:00 10 0 Calma 5 Norte 0 -- -- 100
2019-04-20 08:00:00 9 0 Calma 6 Norte 0 -- -- 100
2019-04-20 07:00:00 9.1 2 Sudoeste 5 Noroeste 0 -- -- 99
2019-04-20 06:00:00 9.8 2 Sudoeste 8 Noroeste 0 -- -- 98
2019-04-20 05:00:00 10.5 4 Noroeste 8 Noroeste 0 -- -- 98
2019-04-20 04:00:00 10.7 2 Oeste 6 Noroeste 0 -- -- 97
2019-04-20 03:00:00 11.4 3 Noroeste 10 Noroeste 0 -- -- 94
2019-04-20 02:00:00 12.2 3 Noroeste 9 Noroeste 0 -- -- 91
2019-04-20 01:00:00 12.2 4 Norte 6 Norte 0 -- -- 92
2019-04-20 00:00:00 12.3 2 Oeste 10 Sudoeste 0 -- -- 87
2019-04-19 23:00:00 13.5 5 Oeste 12 Sudoeste 0 -- -- 78
2019-04-19 22:00:00 14.6 2 Oeste 8 Sudoeste 0 -- -- 77
2019-04-19 21:00:00 16.4 4 Sudoeste 11 Sudoeste 0 -- -- 68
2019-04-19 20:00:00 18.7 7 Sudoeste 15 Oeste 0 -- -- 65
2019-04-19 19:00:00 20.7 4 Oeste 15 Sudoeste 0 -- -- 59
2019-04-19 18:00:00 21.3 4 Sudoeste 15 Sudoeste 0 -- -- 58
2019-04-19 17:00:00 21.6 4 Sur 15 Oeste 0 -- -- 58
2019-04-19 16:00:00 21.2 2 Oeste 15 Norte 0 -- -- 54
2019-04-19 15:00:00 20 8 Noroeste 19 Noroeste 0 -- -- 57
2019-04-19 14:00:00 20 6 Noroeste 14 Noroeste 0 -- -- 57
2019-04-19 13:00:00 19.1 3 Norte 6 Noroeste 0 -- -- 63
2019-04-19 12:00:00 16.2 0 Calma 5 Norte 0 -- -- 77
2019-04-19 11:00:00 12.8 0 Calma 9 Norte 0 -- -- 90
2019-04-19 10:00:00 11.3 0 Calma 3 Sudeste 0 -- -- 97
2019-04-19 09:00:00 10.5 0 Calma 5 Noroeste 0 -- -- 98
2019-04-19 08:00:00 10.4 3 Norte 6 Norte 0 -- -- 98
2019-04-19 07:00:00 10.4 0 Calma 8 Norte 0 -- -- 97
2019-04-19 06:00:00 10.6 3 Sudeste 5 Este 0 -- -- 96
2019-04-19 05:00:00 10.8 2 Sur 7 Norte 0 -- -- 95
2019-04-19 04:00:00 11 2 Sudoeste 8 Sudoeste 0 -- -- 94
2019-04-19 03:00:00 10.9 0 Calma 10 Noroeste 0 -- -- 95
2019-04-19 02:00:00 11 0 Calma 8 Noroeste 0 -- -- 93
2019-04-19 01:00:00 11.5 3 Noroeste 6 Noroeste 0 -- -- 94
2019-04-19 00:00:00 12.3 0 Calma 5 Noroeste 0 -- -- 89
2019-04-18 23:00:00 13.2 2 Sudoeste 5 Noroeste 0 -- -- 86
2019-04-18 22:00:00 13.8 2 Sudoeste 6 Sudoeste 0 -- -- 81
2019-04-18 21:00:00 14.4 3 Sudoeste 9 Oeste 0 -- -- 78
2019-04-18 20:00:00 15.1 3 Sudoeste 10 Noroeste 0 -- -- 78
2019-04-18 19:00:00 15.1 5 Noroeste 16 Noroeste 0 -- -- 76
2019-04-18 18:00:00 15.4 9 Noroeste 24 Noroeste 0 -- -- 74
2019-04-18 17:00:00 16.6 10 Noroeste 22 Noroeste 0 -- -- 69
2019-04-18 16:00:00 17 9 Noroeste 22 Noroeste 0 -- -- 69
2019-04-18 15:00:00 17.6 5 Oeste 14 Noroeste 0 -- -- 69
2019-04-18 14:00:00 15.8 2 Oeste 14 Oeste 0.2 -- -- 82
2019-04-18 13:00:00 16.4 8 Sudoeste 24 Nordeste 0 -- -- 57
2019-04-18 12:00:00 16.3 12 Nordeste 18 Nordeste 0 -- -- 59
2019-04-18 11:00:00 16.5 6 Sudeste 22 Este 0 -- -- 60
2019-04-18 10:00:00 16.9 12 Sur 20 Sur 0 -- -- 50
2019-04-18 09:00:00 17.7 12 Sur 40 Sudeste 0 -- -- 48
2019-04-18 08:00:00 18 13 Sudeste 33 Este 0 -- -- 43
2019-04-18 07:00:00 17.8 14 Sur 35 Sudeste 0 -- -- 46
2019-04-18 06:00:00 17.1 11 Nordeste 30 Nordeste 0 -- -- 51
2019-04-18 05:00:00 17.3 13 Nordeste 34 Sudeste 0 -- -- 51
2019-04-18 04:00:00 17.7 9 Sudeste 26 Sudeste 0 -- -- 48
2019-04-18 03:00:00 18.3 5 Norte 27 Este 0 -- -- 51
2019-04-18 02:00:00 19.2 15 Sur 37 Sudeste 0 -- -- 49
2019-04-18 01:00:00 19.5 12 Sur 29 Sur 0 -- -- 50
2019-04-18 00:00:00 20.5 6 Sur 28 Este 0 -- -- 48
2019-04-17 23:00:00 21.2 12 Sudeste 43 Sur 0 -- -- 45
2019-04-17 22:00:00 21.7 17 Sudeste 41 Sudeste 0 -- -- 45
2019-04-17 21:00:00 22.1 12 Sudeste 30 Sudeste 0 -- -- 44
2019-04-17 20:00:00 22.5 14 Sudeste 44 Sudeste 0 -- -- 41
2019-04-17 19:00:00 22.4 13 Sudeste 34 Este 0 -- -- 43
2019-04-17 18:00:00 22.8 10 Este 39 Este 0 -- -- 43
2019-04-17 17:00:00 22.1 12 Este 50 Este 0 -- -- 44
2019-04-17 16:00:00 21.1 21 Sur 45 Sudeste 0 -- -- 48
2019-04-17 15:00:00 20.7 11 Sur 50 Nordeste 0 -- -- 49
2019-04-17 14:00:00 18.8 19 Sudeste 49 Este 0 -- -- 50
2019-04-17 13:00:00 18.4 23 Sudeste 63 Sur 0 -- -- 51
2019-04-17 12:00:00 17.7 26 Sudeste 76 Sudeste 0 -- -- 49
2019-04-17 11:00:00 17 17 Sur 67 Sudeste 0 -- -- 52
2019-04-17 10:00:00 16.5 25 Sur 67 Sudeste 0 -- -- 53
2019-04-17 09:00:00 16.5 27 Sudeste 59 Este 0 -- -- 50
2019-04-17 08:00:00 16.1 22 Sudeste 47 Este 0 -- -- 52
2019-04-17 07:00:00 15.8 13 Sudeste 41 Sur 0 -- -- 53
2019-04-17 06:00:00 15.9 18 Sudeste 44 Sudeste 0 -- -- 51
2019-04-17 05:00:00 16 17 Sudeste 46 Este 0 -- -- 54
2019-04-17 04:00:00 16.4 17 Sudeste 36 Sudeste 0 -- -- 56
2019-04-17 03:00:00 16.7 17 Sudeste 46 Sudeste 0 -- -- 56
2019-04-17 02:00:00 16.9 13 Sudeste 34 Sudeste 0 -- -- 55
2019-04-17 01:00:00 15.9 14 Sudeste 28 Este 0 -- -- 54
2019-04-17 00:00:00 11.7 5 Norte 7 Norte 0 -- -- 95
2019-04-16 23:00:00 12.9 0 Calma 4 Sudoeste 0 -- -- 90
2019-04-16 22:00:00 14.3 2 Oeste 9 Sudoeste 0 -- -- 84
2019-04-16 21:00:00 16.7 4 Sudoeste 9 Sur 0 -- -- 71
2019-04-16 20:00:00 18.2 4 Sudoeste 14 Sur 0 -- -- 63
2019-04-16 19:00:00 19.3 6 Noroeste 24 Norte 0 -- -- 59
2019-04-16 18:00:00 18.8 9 Noroeste 17 Noroeste 0 -- -- 61
2019-04-16 17:00:00 19.3 6 Noroeste 17 Oeste 0 -- -- 60
2019-04-16 16:00:00 19.8 4 Noroeste 13 Noroeste 0 -- -- 58
2019-04-16 15:00:00 18.3 8 Noroeste 17 Noroeste 0 -- -- 56
2019-04-16 14:00:00 18.1 7 Noroeste 14 Noroeste 0 -- -- 60
2019-04-16 13:00:00 17.1 4 Noroeste 10 Noroeste 0 -- -- 59
2019-04-16 12:00:00 16.9 4 Norte 8 Norte 0 -- -- 69
2019-04-16 11:00:00 15.7 3 Nordeste 5 Norte 0.2 -- -- 72
2019-04-16 10:00:00 13.6 0 Calma 4 Nordeste 0 -- -- 97
2019-04-16 09:00:00 11.1 0 Calma 5 Sudoeste 0 -- -- 100
2019-04-16 08:00:00 10 0 Calma 4 Sudoeste 0 -- -- 100
2019-04-16 07:00:00 10.3 0 Calma 2 Noroeste 0 -- -- 100
2019-04-16 06:00:00 10.5 0 Calma 3 Sudoeste 0 -- -- 100
2019-04-16 05:00:00 10.8 0 Calma 4 Este 0 -- -- 100
2019-04-16 04:00:00 10.9 0 Calma 4 Sudoeste 0 -- -- 100
2019-04-16 03:00:00 11 0 Calma 4 Este 0 -- -- 100
2019-04-16 02:00:00 11.2 0 Calma 4 Sur 0 -- -- 100
2019-04-16 01:00:00 11.4 0 Calma 8 Sur 0.6 -- -- 100
2019-04-16 00:00:00 11.5 0 Calma 4 Noroeste 0.8 -- -- 99
2019-04-15 23:00:00 11.5 0 Calma 6 Este 1.4 -- -- 99
2019-04-15 22:00:00 11.7 0 Calma 13 Nordeste 1.4 -- -- 98
2019-04-15 21:00:00 12.1 3 Sur 21 Sudoeste 4.8 -- -- 94
2019-04-15 20:00:00 12.9 8 Sur 25 Sudoeste 6.2 -- -- 92
2019-04-15 19:00:00 14.2 4 Noroeste 37 Norte 14.8 -- -- 93
2019-04-15 18:00:00 18.5 9 Noroeste 49 Oeste 0 -- -- 72
2019-04-15 17:00:00 23.4 11 Este 36 Sudeste 0 -- -- 51
2019-04-15 16:00:00 23 13 Sudeste 33 Sur 0 -- -- 48
2019-04-15 15:00:00 22.5 15 Sudeste 40 Este 0 -- -- 50
2019-04-15 14:00:00 21.1 13 Este 39 Este 0 -- -- 54
2019-04-15 13:00:00 21.9 14 Sudeste 41 Nordeste 0 -- -- 50
2019-04-15 12:00:00 21.4 18 Sudeste 33 Sudeste 0 -- -- 50
2019-04-15 11:00:00 20.4 23 Sudeste 38 Este 0 -- -- 54
2019-04-15 10:00:00 19 15 Sudeste 27 Sur 0 -- -- 62
2019-04-15 09:00:00 11.5 8 Norte 19 Noroeste 0 -- -- 100
2019-04-15 08:00:00 9.8 3 Noroeste 10 Norte 0 -- -- 100
2019-04-15 07:00:00 9.6 4 Noroeste 10 Norte 0 -- -- 100
2019-04-15 06:00:00 9.7 5 Noroeste 10 Noroeste 0 -- -- 100
2019-04-15 05:00:00 9.5 0 Calma 11 Noroeste 0 -- -- 99
2019-04-15 04:00:00 9.6 0 Calma 12 Noroeste 0 -- -- 100
2019-04-15 03:00:00 10 4 Noroeste 11 Noroeste 0 -- -- 99
2019-04-15 02:00:00 10.3 0 Calma 8 Noroeste 0 -- -- 98
2019-04-15 01:00:00 10.8 2 Sudeste 10 Norte 0 -- -- 96
2019-04-15 00:00:00 11.5 4 Norte 9 Norte 0 -- -- 96
2019-04-14 23:00:00 12.3 3 Noroeste 8 Noroeste 0 -- -- 93
2019-04-14 22:00:00 13.8 0 Calma 4 Noroeste 0 -- -- 85
2019-04-14 21:00:00 15.1 4 Noroeste 6 Noroeste 0 -- -- 79
2019-04-14 20:00:00 16.8 3 Norte 6 Nordeste 0 -- -- 69
2019-04-14 19:00:00 17.9 0 Calma 6 Sur 0 -- -- 63
2019-04-14 18:00:00 17.4 0 Calma 10 Sudoeste 0 -- -- 66
2019-04-14 17:00:00 18.1 3 Sur 14 Norte 0 -- -- 66
2019-04-14 16:00:00 19.5 2 Sur 10 Norte 0 -- -- 50
2019-04-14 15:00:00 19.5 4 Norte 15 Norte 0 -- -- 54
2019-04-14 14:00:00 19.2 2 Nordeste 10 Norte 0 -- -- 43
2019-04-14 13:00:00 16.6 0 Calma 9 Sudoeste 0 -- -- 67
2019-04-14 12:00:00 15 3 Sur 5 Sur 0 -- -- 67
2019-04-14 11:00:00 12.4 0 Calma 4 Noroeste 0 -- -- 77
2019-04-14 10:00:00 10.6 0 Calma 4 Nordeste 0 -- -- 84
2019-04-14 09:00:00 9 0 Calma 3 Sudoeste 0 -- -- 89
2019-04-14 08:00:00 8.3 0 Calma 4 Sur 0 -- -- 90
2019-04-14 07:00:00 7.9 0 Calma 3 Sur 0 -- -- 90
2019-04-14 06:00:00 7.6 0 Calma 3 Sudeste 0 -- -- 91
2019-04-14 05:00:00 7.3 3 Sur 5 Sudeste 0 -- -- 90
2019-04-14 04:00:00 7.1 0 Calma 4 Sur 0 -- -- 92
2019-04-14 03:00:00 7.3 0 Calma 5 Sudeste 0 -- -- 93
2019-04-14 02:00:00 7.5 0 Calma 5 Noroeste 0 -- -- 90
2019-04-14 01:00:00 7.9 2 Sudoeste 5 Noroeste 0 -- -- 89
2019-04-14 00:00:00 9.1 0 Calma 5 Noroeste 0 -- -- 85
2019-04-13 23:00:00 10.3 3 Sudoeste 5 Sudoeste 0 -- -- 80
2019-04-13 22:00:00 12.7 3 Sur 6 Sudoeste 0 -- -- 72
2019-04-13 21:00:00 15.7 5 Sudoeste 9 Sudoeste 0 -- -- 58
2019-04-13 20:00:00 19.6 7 Sudoeste 12 Sudoeste 0 -- -- 47
2019-04-13 19:00:00 20.8 2 Oeste 10 Noroeste 0 -- -- 36
2019-04-13 18:00:00 19.2 7 Noroeste 16 Noroeste 0 -- -- 40
2019-04-13 17:00:00 20.2 8 Noroeste 16 Noroeste 0 -- -- 40
2019-04-13 16:00:00 20.5 8 Noroeste 14 Noroeste 0 -- -- 45
2019-04-13 15:00:00 20.9 3 Norte 8 Norte 0 -- -- 48
2019-04-13 14:00:00 20 3 Este 9 Nordeste 0 -- -- 44
2019-04-13 13:00:00 17.6 3 Noroeste 7 Norte 0 -- -- 47
2019-04-13 12:00:00 15.2 2 Nordeste 5 Sudeste 0 -- -- 65
2019-04-13 11:00:00 10.6 0 Calma 5 Nordeste 0 -- -- 74
2019-04-13 10:00:00 5.9 0 Calma 4 Sudoeste 0 -- -- 100
2019-04-13 09:00:00 2.1 2 Sudoeste 4 Sudoeste 0 -- -- 100
2019-04-13 08:00:00 1.6 3 Sudoeste 4 Sur 0 -- -- 100
2019-04-13 07:00:00 1.7 0 Calma 5 Sudeste 0 -- -- 100
2019-04-13 06:00:00 2.3 2 Sudoeste 4 Noroeste 0 -- -- 100
2019-04-13 05:00:00 2.7 0 Calma 5 Sudeste 0 -- -- 100
2019-04-13 04:00:00 3 4 Sur 7 Sudeste 0 -- -- 99
2019-04-13 03:00:00 3.7 2 Sudoeste 7 Noroeste 0 -- -- 98
2019-04-13 02:00:00 4.4 0 Calma 5 Noroeste 0 -- -- 98
2019-04-13 01:00:00 5 0 Calma 5 Noroeste 0 -- -- 96
2019-04-13 00:00:00 5.8 3 Sur 8 Sudeste 0 -- -- 94
2019-04-12 23:00:00 7.1 0 Calma 5 Noroeste 0 -- -- 90
2019-04-12 22:00:00 8.7 2 Sudeste 5 Este 0 -- -- 82
2019-04-12 21:00:00 10.7 0 Calma 12 Noroeste 0 -- -- 74
2019-04-12 20:00:00 11.9 9 Noroeste 17 Noroeste 0 -- -- 67
2019-04-12 19:00:00 13 8 Noroeste 19 Norte 0 -- -- 66
2019-04-12 18:00:00 14.3 8 Norte 19 Norte 0 -- -- 67
2019-04-12 17:00:00 14 9 Noroeste 22 Noroeste 0 -- -- 65
2019-04-12 16:00:00 13.7 8 Norte 22 Norte 0 -- -- 70
2019-04-12 15:00:00 15.4 5 Norte 21 Norte 0 -- -- 63
2019-04-12 14:00:00 14.9 6 Noroeste 24 Norte 0 -- -- 64
2019-04-12 13:00:00 14.6 4 Nordeste 13 Nordeste 0 -- -- 67
2019-04-12 12:00:00 13 5 Norte 14 Norte 0 -- -- 77
2019-04-12 11:00:00 11.1 3 Norte 14 Noroeste 0 -- -- 87
2019-04-12 10:00:00 10.6 0 Calma 13 Noroeste 0 -- -- 91
2019-04-12 09:00:00 9.8 5 Noroeste 15 Noroeste 0 -- -- 92
2019-04-12 08:00:00 9.2 4 Oeste 8 Sudoeste 0 -- -- 98
2019-04-12 07:00:00 9.1 3 Oeste 10 Noroeste 0 -- -- 96
2019-04-12 06:00:00 9.1 3 Sudoeste 9 Sudoeste 0 -- -- 97
2019-04-12 05:00:00 9.4 3 Sudoeste 13 Noroeste 0 -- -- 96
2019-04-12 04:00:00 9.3 3 Oeste 10 Norte 0 -- -- 95
2019-04-12 03:00:00 9.3 4 Sudoeste 12 Oeste 0 -- -- 95
2019-04-12 02:00:00 9.4 4 Sudoeste 10 Sudoeste 0 -- -- 97
2019-04-12 01:00:00 9.4 5 Sudoeste 11 Norte 1.6 -- -- 97
2019-04-12 00:00:00 9.4 3 Sudoeste 6 Sudoeste 0 -- -- 98
2019-04-11 23:00:00 9.6 2 Sudoeste 9 Oeste 0 -- -- 96
2019-04-11 22:00:00 9.9 4 Noroeste 8 Nordeste 0.2 -- -- 91
2019-04-11 21:00:00 10.3 2 Sur 13 Oeste 0 -- -- 87
2019-04-11 20:00:00 11 3 Sudoeste 13 Sudoeste 0 -- -- 86
2019-04-11 19:00:00 11.5 4 Noroeste 14 Noroeste 0 -- -- 80
2019-04-11 18:00:00 11.3 3 Sur 14 Oeste 0 -- -- 92
2019-04-11 17:00:00 10.9 4 Noroeste 15 Sudoeste 0.8 -- -- 92
2019-04-11 16:00:00 11.5 3 Noroeste 17 Oeste 0 -- -- 85
2019-04-11 15:00:00 11.8 0 Calma 8 Nordeste 0 -- -- 83
2019-04-11 14:00:00 11.3 0 Calma 16 Norte 0 -- -- 91
2019-04-11 13:00:00 10.4 4 Oeste 17 Noroeste 0.4 -- -- 94
2019-04-11 12:00:00 10.2 4 Noroeste -- -- -- -- -- 93
2019-04-11 11:00:00 9.5 5 Sur 13 Sudoeste 0.8 -- -- 97
2019-04-11 10:00:00 9.2 5 Sur 17 Oeste 0.6 -- -- 95
2019-04-11 09:00:00 8.9 2 Sudoeste 13 Noroeste 0.8 -- -- 94
2019-04-11 08:00:00 8.6 3 Sur 15 Noroeste 1.8 -- -- 99
2019-04-11 07:00:00 7.8 3 Sudoeste 6 Sudoeste 0 -- -- 100
2019-04-11 06:00:00 7.7 0 Calma 5 Sudoeste 0 -- -- 99
2019-04-11 05:00:00 8.1 3 Sur 8 Sudoeste 0.2 -- -- 98
2019-04-11 04:00:00 8.5 3 Sudeste 15 Sudoeste 1 -- -- 94
2019-04-11 03:00:00 9.4 6 Sur 18 Sur 3.2 -- -- 91
2019-04-11 02:00:00 10.3 5 Noroeste 17 Noroeste 0 -- -- 89
2019-04-11 01:00:00 10.4 6 Noroeste 20 Noroeste 0 -- -- 90
2019-04-11 00:00:00 10.2 8 Noroeste 21 Noroeste 0 -- -- 91
2019-04-10 23:00:00 9.8 0 Calma 16 Oeste 4 -- -- 94
2019-04-10 22:00:00 10.3 5 Sudoeste 13 Norte 0 -- -- 92
2019-04-10 21:00:00 10.3 2 Sudoeste 7 Oeste 0 -- -- 90
2019-04-10 20:00:00 10.5 3 Oeste 12 Norte 0.6 -- -- 91
2019-04-10 19:00:00 11.9 0 Calma 17 Noroeste 0 -- -- 82
2019-04-10 18:00:00 12.2 5 Noroeste 21 Noroeste 0 -- -- 82
2019-04-10 17:00:00 12.8 5 Noroeste 26 Noroeste 0.2 -- -- 81
2019-04-10 16:00:00 14.5 5 Norte 17 Noroeste 0 -- -- 63
2019-04-10 15:00:00 14.2 8 Sur 15 Sudoeste 0 -- -- 79
2019-04-10 14:00:00 13.8 0 Calma 8 Nordeste 0 -- -- 80
2019-04-10 13:00:00 12.7 0 Calma 8 Nordeste 0 -- -- 83
2019-04-10 12:00:00 9.6 3 Sudeste 9 Nordeste 2 -- -- 100
2019-04-10 11:00:00 8.7 0 Calma 4 Noroeste 2.4 -- -- 100
2019-04-10 10:00:00 8.3 0 Calma 13 Norte 2 -- -- 100
2019-04-10 09:00:00 7.8 2 Sudoeste 4 Sudoeste 0 -- -- 100
2019-04-10 08:00:00 7.4 0 Calma 4 Este 0.4 -- -- 100
2019-04-10 07:00:00 7 0 Calma 4 Sudoeste 0 -- -- 100
2019-04-10 06:00:00 7.1 2 Sudeste 4 Sudeste 0 -- -- 100
2019-04-10 05:00:00 7.2 0 Calma 4 Sudeste 0 -- -- 100
2019-04-10 04:00:00 7.6 0 Calma 4 Sur 0 -- -- 99
2019-04-10 03:00:00 7.9 2 Sudoeste 4 Sudeste 0 -- -- 99
2019-04-10 02:00:00 8.2 0 Calma 7 Este 0 -- -- 98
2019-04-10 01:00:00 8.4 0 Calma 10 Noroeste 0 -- -- 97
2019-04-10 00:00:00 8.7 4 Este 16 Este 0 -- -- 93
2019-04-09 23:00:00 8.8 3 Norte 7 Norte 0.4 -- -- 94
2019-04-09 22:00:00 9.3 4 Este 10 Este 3.8 -- -- 97
2019-04-09 21:00:00 9.7 2 Sur 5 Sudeste 1.8 -- -- 96
2019-04-09 20:00:00 10.2 0 Calma 13 Oeste 3.4 -- -- 94
2019-04-09 19:00:00 11.1 5 Sudoeste 27 Sudoeste 0.8 -- -- 84
2019-04-09 18:00:00 13.8 4 Noroeste 17 Norte 0.4 -- -- 60
2019-04-09 17:00:00 15 3 Oeste 13 Noroeste 0 -- -- 60
2019-04-09 16:00:00 16.1 6 Norte 26 Oeste 0 -- -- 56
2019-04-09 15:00:00 16.2 10 Norte 21 Norte 0 -- -- 55
2019-04-09 14:00:00 18.2 11 Sudoeste 30 Sudoeste 0 -- -- 48
2019-04-09 13:00:00 18 7 Sur 18 Sudoeste 0 -- -- 54
2019-04-09 12:00:00 15.5 5 Sur 26 Oeste 0 -- -- 50
2019-04-09 11:00:00 14.7 8 Sur 15 Sur 0 -- -- 55
2019-04-09 10:00:00 9.5 3 Nordeste 9 Noroeste 0 -- -- 94
2019-04-09 09:00:00 5.6 3 Noroeste 9 Noroeste 0 -- -- 100
2019-04-09 08:00:00 4.5 3 Noroeste 10 Norte 0 -- -- 100
2019-04-09 07:00:00 4.7 3 Noroeste 10 Norte 0 -- -- 100
2019-04-09 06:00:00 4.8 2 Nordeste 8 Noroeste 0 -- -- 100
2019-04-09 05:00:00 5 2 Nordeste 6 Sudoeste 0 -- -- 100
2019-04-09 04:00:00 5.4 0 Calma 7 Norte 0 -- -- 99
2019-04-09 03:00:00 5.9 0 Calma 6 Noroeste 0 -- -- 98
2019-04-09 02:00:00 6.4 3 Noroeste 6 Norte 0 -- -- 99
2019-04-09 01:00:00 6.7 3 Sur 8 Norte 0 -- -- 97
2019-04-09 00:00:00 7.4 2 Sudoeste 5 Sur 0 -- -- 95
2019-04-08 23:00:00 8.4 0 Calma 4 Sudeste 0 -- -- 92
2019-04-08 22:00:00 9.5 2 Este 6 Sudeste 0 -- -- 86
2019-04-08 21:00:00 10.8 0 Calma 6 Norte 0 -- -- 82
2019-04-08 20:00:00 13.3 0 Calma 5 Oeste 0 -- -- 70
2019-04-08 19:00:00 13.5 3 Norte 10 Sur 0 -- -- 63
2019-04-08 18:00:00 14.6 0 Calma 10 Noroeste 0 -- -- 63
2019-04-08 17:00:00 13.4 0 Calma 9 Sudoeste 0 -- -- 76
2019-04-08 16:00:00 13.7 5 Este 9 Este 0 -- -- 89
2019-04-08 15:00:00 11.8 3 Sur 13 Sudoeste 0.8 -- -- 92
2019-04-08 14:00:00 11.3 7 Sur 16 Sudoeste 2.4 -- -- 95
2019-04-08 13:00:00 11.1 6 Sudoeste 15 Sudoeste 5.2 -- -- 94
2019-04-08 12:00:00 11.1 0 Calma 5 Norte 0.2 -- -- 96
2019-04-08 11:00:00 10.2 2 Noroeste 10 Norte 2 -- -- 98
2019-04-08 10:00:00 10.3 5 Norte 20 Sudeste 0.6 -- -- 92
2019-04-08 09:00:00 11.6 11 Sudeste 20 Sur 0 -- -- 75
2019-04-08 08:00:00 10.8 9 Sur 26 Sudeste 0.4 -- -- 80
2019-04-08 07:00:00 12.4 11 Sur 34 Sudeste 0 -- -- 64
2019-04-08 06:00:00 12.5 16 Este 26 Este 0 -- -- 63
2019-04-08 05:00:00 12.6 14 Sudeste 27 Sur 0 -- -- 58
2019-04-08 04:00:00 12.3 10 Sur 25 Sur 0 -- -- 60
2019-04-08 03:00:00 11.3 12 Sudeste 22 Sudeste 0 -- -- 61
2019-04-08 02:00:00 8.1 8 Noroeste 13 Noroeste 0 -- -- 92
2019-04-08 01:00:00 8 4 Noroeste 9 Norte 0 -- -- 94
2019-04-08 00:00:00 8.5 5 Noroeste 9 Noroeste 0 -- -- 93
2019-04-07 23:00:00 9.2 7 Noroeste 12 Noroeste 0 -- -- 87
2019-04-07 22:00:00 9.6 7 Noroeste 11 Noroeste 0 -- -- 87
2019-04-07 21:00:00 10.8 4 Norte 7 Norte 0 -- -- 81
2019-04-07 20:00:00 12.7 2 Norte 4 Norte 0 -- -- 71
2019-04-07 19:00:00 12.9 4 Noroeste 7 Noroeste 0 -- -- 66
2019-04-07 18:00:00 13.6 4 Norte 11 Noroeste 0 -- -- 71
2019-04-07 17:00:00 14.1 3 Sudoeste 13 Sur 0 -- -- 72
2019-04-07 16:00:00 12.6 2 Nordeste 6 Este 0 -- -- 82
2019-04-07 15:00:00 10.6 0 Calma 3 Sur 0 -- -- 86
2019-04-07 14:00:00 9.9 0 Calma 4 Sudoeste 0.8 -- -- 91
2019-04-07 13:00:00 8.8 0 Calma 8 Norte 3.4 -- -- 98
2019-04-07 12:00:00 8.1 7 Noroeste 10 Noroeste 1.2 -- -- 95
2019-04-07 11:00:00 8.3 4 Sudeste 8 Nordeste 0.4 -- -- 94
2019-04-07 10:00:00 7.6 2 Nordeste 7 Nordeste 0 -- -- 99
2019-04-07 09:00:00 7 0 Calma 5 Este 0 -- -- 100
2019-04-07 08:00:00 6.5 0 Calma 5 Sudoeste 0 -- -- 100
2019-04-07 07:00:00 6.6 2 Sudeste 3 Sudeste 0 -- -- 100
2019-04-07 06:00:00 6.6 2 Sur 4 Sudoeste 0 -- -- 100
2019-04-07 05:00:00 6.7 0 Calma 4 Sudeste 0 -- -- 99
2019-04-07 04:00:00 6.7 0 Calma 6 Este 0 -- -- 99
2019-04-07 03:00:00 6.7 3 Sur 6 Sur 0.2 -- -- 99
2019-04-07 02:00:00 6.8 2 Sur 4 Sur 0 -- -- 98
2019-04-07 01:00:00 7 0 Calma 4 Este 0.4 -- -- 95
2019-04-07 00:00:00 7.5 0 Calma 10 Noroeste 2.2 -- -- 91
2019-04-06 23:00:00 8.6 3 Sudoeste 18 Nordeste 0.2 -- -- 85
2019-04-06 22:00:00 10.4 5 Sur 26 Noroeste 0 -- -- 72
2019-04-06 21:00:00 12.2 12 Sur 25 Sur 0 -- -- 55
2019-04-06 20:00:00 14.3 4 Sur 20 Sur 0 -- -- 45
2019-04-06 19:00:00 15 14 Sur 26 Sur 0 -- -- 42
2019-04-06 18:00:00 16 13 Sur 31 Sur 0 -- -- 38
2019-04-06 17:00:00 17 17 Sudoeste 35 Sur 0 -- -- 42
2019-04-06 16:00:00 17.1 12 Sur 41 Sudoeste 0 -- -- 43
2019-04-06 15:00:00 15.4 19 Sudoeste 36 Sudoeste 0 -- -- 44
2019-04-06 14:00:00 14.4 7 Sudoeste 36 Sudoeste 0 -- -- 44
2019-04-06 13:00:00 14.5 14 Sudoeste 37 Sur 0 -- -- 52
2019-04-06 12:00:00 15.2 5 Sudeste 17 Sur 0 -- -- 60
2019-04-06 11:00:00 12.2 5 Norte 17 Este 0 -- -- 64
2019-04-06 10:00:00 8.3 6 Norte 12 Noroeste 0 -- -- 97
2019-04-06 09:00:00 6 0 Calma 8 Noroeste 0 -- -- 98
2019-04-06 08:00:00 6.2 0 Calma 9 Este 0 -- -- 97
2019-04-06 07:00:00 6.2 4 Este 12 Sudeste 0 -- -- 94
2019-04-06 06:00:00 6.4 8 Este 13 Este 1.4 -- -- 97
2019-04-06 05:00:00 6.6 5 Oeste 12 Oeste 1.4 -- -- 99
2019-04-06 04:00:00 6.6 2 Sur 4 Sur 0 -- -- 99
2019-04-06 03:00:00 6.7 0 Calma 6 Sudeste 0 -- -- 97
2019-04-06 02:00:00 6.8 4 Este 12 Este 0 -- -- 95
2019-04-06 01:00:00 6.8 5 Este 13 Nordeste 0 -- -- 96
2019-04-06 00:00:00 6.9 5 Nordeste 8 Sur 0 -- -- 97
2019-04-05 23:00:00 7.1 3 Este 6 Nordeste 0.4 -- -- 95
2019-04-05 22:00:00 7.4 4 Este 10 Nordeste 0.2 -- -- 96
2019-04-05 21:00:00 7.4 5 Sudeste 14 Nordeste 1.8 -- -- 95
2019-04-05 20:00:00 7.8 3 Norte 9 Nordeste 0.4 -- -- 92
2019-04-05 19:00:00 8.3 2 Nordeste 18 Oeste 0.6 -- -- 92
2019-04-05 18:00:00 9.1 4 Oeste 40 Sudoeste 0.8 -- -- 80
2019-04-05 17:00:00 13.6 6 Este 26 Este 0 -- -- 55
2019-04-05 16:00:00 13.9 9 Este 30 Sudeste 0 -- -- 53
2019-04-05 15:00:00 13.6 10 Este 34 Este 0 -- -- 55
2019-04-05 14:00:00 12.8 17 Este 37 Sur 0 -- -- 58
2019-04-05 13:00:00 12.8 16 Sudeste 35 Sudeste 0 -- -- 58
2019-04-05 12:00:00 12.4 21 Este 47 Sur 0 -- -- 59
2019-04-05 11:00:00 11.2 19 Sudeste 48 Sudeste 0 -- -- 62
2019-04-05 10:00:00 10.7 18 Sudeste 44 Sudeste 0 -- -- 61
2019-04-05 09:00:00 11.3 14 Sur 40 Sudeste 0 -- -- 54
2019-04-05 08:00:00 11.7 11 Sur 36 Este 0 -- -- 51
2019-04-05 07:00:00 12 9 Sur 53 Sur 0 -- -- 45
2019-04-05 06:00:00 12.1 13 Sur 37 Sudeste 0 -- -- 44
2019-04-05 05:00:00 11.6 8 Este 30 Sudeste 0 -- -- 41
2019-04-05 04:00:00 11.9 11 Sudeste 26 Este 0 -- -- 41
2019-04-05 03:00:00 11.5 13 Sur 29 Sudoeste 0 -- -- 44
2019-04-05 02:00:00 11.2 10 Sur 21 Sur 0 -- -- 47
2019-04-05 01:00:00 11.6 3 Sur 14 Sur 0 -- -- 48
2019-04-05 00:00:00 12.6 8 Sudeste 19 Sudeste 0 -- -- 41
2019-04-04 23:00:00 12.8 11 Sur 21 Sudeste 0 -- -- 41
2019-04-04 22:00:00 12.7 9 Sudeste 19 Sur 0 -- -- 41
2019-04-04 21:00:00 12.9 8 Sur 16 Sudeste 0 -- -- 43
2019-04-04 20:00:00 13.8 8 Sur 18 Sudeste 0 -- -- 46
2019-04-04 19:00:00 15 7 Sudoeste 26 Sur 0 -- -- 40
2019-04-04 18:00:00 15 9 Sur 26 Sudeste 0 -- -- 36
2019-04-04 17:00:00 15.3 10 Sudeste 26 Sudoeste 0 -- -- 42
2019-04-04 16:00:00 14.6 8 Sudoeste 22 Sur 0 -- -- 49
2019-04-04 15:00:00 14.1 8 Sur 21 Sur 0 -- -- 53
2019-04-04 14:00:00 13 15 Sur 24 Sur 0 -- -- 60
2019-04-04 13:00:00 11.2 11 Sur 25 Sur 0 -- -- 59
2019-04-04 12:00:00 9.6 16 Sur 27 Sur 0 -- -- 67
2019-04-04 11:00:00 10.5 6 Sudeste 15 Sur 0 -- -- 75
2019-04-04 10:00:00 7.2 4 Sudeste 10 Sur 0 -- -- 88
2019-04-04 09:00:00 4.6 6 Norte 11 Norte 0 -- -- 99
2019-04-04 08:00:00 3.7 4 Noroeste 13 Noroeste 0 -- -- 96
2019-04-04 07:00:00 3.7 4 Sudeste 23 Sudoeste 0.8 -- -- 94
2019-04-04 06:00:00 3.9 2 Oeste 11 Sur 0 -- -- 89
2019-04-04 05:00:00 3.4 3 Nordeste 7 Este 0.2 -- -- 97
2019-04-04 04:00:00 4 0 Calma 11 Oeste 0.2 -- -- 90
2019-04-04 03:00:00 4 3 Norte 24 Sudoeste 0 -- -- 90
2019-04-04 02:00:00 3.7 3 Oeste 20 Sur 0.8 -- -- 93
2019-04-04 01:00:00 3.5 5 Noroeste 16 Este 0.2 -- -- 96
2019-04-04 00:00:00 3.6 5 Sur 26 Sur 1.4 -- -- 92
2019-04-03 23:00:00 4.1 5 Sudoeste 21 Sudoeste 1.2 -- -- 87
2019-04-03 22:00:00 4.3 8 Sur 49 Oeste 0.8 -- -- 88
2019-04-03 21:00:00 5.5 6 Sudoeste 24 Oeste 0.6 -- -- 85
2019-04-03 20:00:00 6.6 3 Sur 22 Sudoeste 0 -- -- 86
2019-04-03 19:00:00 6.9 2 Sudoeste 8 Oeste 0 -- -- 88
2019-04-03 18:00:00 6.4 11 Norte 25 Noroeste 1.4 -- -- 91
2019-04-03 17:00:00 8.3 5 Sur 15 Sudoeste 0 -- -- 78
2019-04-03 16:00:00 6.8 8 Este 27 Noroeste 1 -- -- 89
2019-04-03 15:00:00 7.4 5 Norte 32 Norte 0.6 -- -- 91
2019-04-03 14:00:00 8.8 5 Oeste 22 Sudeste 0 -- -- 72
2019-04-03 13:00:00 7.4 9 Este 30 Nordeste 2.2 -- -- 95
2019-04-03 12:00:00 8 3 Norte 16 Sudoeste 0.2 -- -- 89
2019-04-03 11:00:00 7.8 6 Sur 16 Sur 0.2 -- -- 79
2019-04-03 10:00:00 6.9 5 Este 22 Sudoeste 0.4 -- -- 95
2019-04-03 09:00:00 6.8 2 Sudeste 15 Norte 1.2 -- -- 97
2019-04-03 08:00:00 7 7 Norte 27 Norte 1.2 -- -- 95
2019-04-03 07:00:00 7.5 4 Sudoeste 19 Sudoeste 0 -- -- 91
2019-04-03 06:00:00 7.4 3 Nordeste 8 Sudeste 0 -- -- 98
2019-04-03 05:00:00 7.4 0 Calma 6 Noroeste 0.2 -- -- 98
2019-04-03 04:00:00 7.7 3 Sur 12 Este 0.2 -- -- 96
2019-04-03 03:00:00 7.9 4 Sur 10 Sur 1.2 -- -- 95
2019-04-03 02:00:00 8.4 0 Calma 8 Sur 0.8 -- -- 96
2019-04-03 01:00:00 8.8 3 Oeste 13 Norte 1.4 -- -- 93
2019-04-03 00:00:00 9.4 2 Sudoeste 6 Sudoeste 2.4 -- -- 96
2019-04-02 23:00:00 9.8 2 Sudoeste 11 Nordeste 3.8 -- -- 96
2019-04-02 22:00:00 10.4 4 Sur 7 Sudoeste 2.6 -- -- 97
2019-04-02 21:00:00 10.8 3 Noroeste 7 Noroeste 0.8 -- -- 92
2019-04-02 20:00:00 11.8 0 Calma 14 Norte 0 -- -- 80
2019-04-02 19:00:00 12.5 3 Norte 12 Noroeste 0 -- -- 76
2019-04-02 18:00:00 12.7 3 Sur 12 Noroeste 0 -- -- 75
2019-04-02 17:00:00 13 3 Norte 17 Noroeste 0 -- -- 78
2019-04-02 16:00:00 13.7 4 Noroeste 17 Norte 0 -- -- 75
2019-04-02 15:00:00 14.4 11 Norte 26 Norte 0 -- -- 72
2019-04-02 14:00:00 15.3 10 Norte 24 Norte 0 -- -- 72
2019-04-02 13:00:00 14.6 4 Norte 9 Norte 0 -- -- 80
2019-04-02 12:00:00 13.3 2 Sudeste 15 Noroeste 0 -- -- 82
2019-04-02 11:00:00 12.5 7 Norte 26 Noroeste 0 -- -- 82
2019-04-02 10:00:00 11.8 0 Calma 4 Norte 0 -- -- 99
2019-04-02 09:00:00 10.2 0 Calma 6 Noroeste 0 -- -- 100
2019-04-02 08:00:00 10.3 0 Calma 4 Sudeste 0 -- -- 100
2019-04-02 07:00:00 10.3 0 Calma 3 Sudoeste 0 -- -- 100
2019-04-02 06:00:00 10.4 4 Norte 8 Norte 0 -- -- 100
2019-04-02 05:00:00 10.4 0 Calma 3 Sudoeste 0 -- -- 99
2019-04-02 04:00:00 10.6 0 Calma 14 Nordeste 2.2 -- -- 99
2019-04-02 03:00:00 10.6 0 Calma 3 Sur 0.8 -- -- 97
2019-04-02 02:00:00 10.7 2 Sur 4 Sur 0 -- -- 95
2019-04-02 01:00:00 10.9 0 Calma 6 Norte 0 -- -- 93
2019-04-02 00:00:00 11.5 2 Noroeste 5 Norte 0 -- -- 91
2019-04-01 23:00:00 11.9 0 Calma 4 Sudoeste 0 -- -- 87
2019-04-01 22:00:00 12.8 0 Calma 5 Oeste 0 -- -- 84
2019-04-01 21:00:00 13.9 0 Calma 7 Sudoeste 0 -- -- 80
2019-04-01 20:00:00 14.9 4 Sudoeste 8 Sudoeste 0 -- -- 75
2019-04-01 19:00:00 16.2 0 Calma 6 Norte 0 -- -- 73
2019-04-01 18:00:00 16.9 3 Noroeste 12 Norte 0 -- -- 72
2019-04-01 17:00:00 17.9 7 Sur 22 Sudeste 0 -- -- 65
2019-04-01 16:00:00 18.9 10 Sur 26 Sur 0 -- -- 53
2019-04-01 15:00:00 17.4 14 Sudoeste 26 Sudoeste 0 -- -- 70
2019-04-01 14:00:00 15.8 6 Este 20 Este 0 -- -- 73
2019-04-01 13:00:00 13.4 4 Norte 13 Noroeste 0 -- -- 76
2019-04-01 12:00:00 11.4 5 Norte 8 Norte 0 -- -- 98
2019-04-01 11:00:00 10.7 0 Calma 3 Sudoeste -- -- -- 100
2019-04-01 10:00:00 9.8 2 Noroeste 5 Norte 0.6 -- -- 100
2019-04-01 09:00:00 9.4 2 Sudoeste 4 Sudoeste 0.8 -- -- 99
2019-04-01 08:00:00 9.5 0 Calma 8 Noroeste 0.2 -- -- 98
2019-04-01 07:00:00 9.6 3 Noroeste 10 Noroeste 0.4 -- -- 96
2019-04-01 06:00:00 9.7 3 Norte 5 Noroeste 0.4 -- -- 97
2019-04-01 05:00:00 9.8 2 Noroeste 10 Noroeste 0.6 -- -- 96
2019-04-01 04:00:00 10.1 4 Noroeste 9 Noroeste 1 -- -- 92
2019-04-01 03:00:00 11.2 5 Noroeste 24 Sudeste 0.6 -- -- 81
2019-04-01 02:00:00 12.7 19 Sudeste 32 Sur 0 -- -- 63
2019-04-01 01:00:00 12.5 10 Sudeste 20 Sudeste 0 -- -- 60
2019-04-01 00:00:00 12 3 Noroeste 8 Noroeste 0 -- -- 77
2019-03-31 23:00:00 12.5 4 Noroeste 5 Noroeste 0 -- -- 72
2019-03-31 22:00:00 14 2 Sur 5 Sudoeste 0 -- -- 61
2019-03-31 21:00:00 15.2 4 Sudoeste 9 Sudoeste 0 -- -- 56
2019-03-31 20:00:00 17.3 0 Calma 13 Noroeste 0 -- -- 42
2019-03-31 19:00:00 17.8 8 Noroeste 17 Noroeste 0 -- -- 40
2019-03-31 18:00:00 18.5 9 Noroeste 17 Noroeste 0 -- -- 38
2019-03-31 17:00:00 18.7 9 Norte 21 Norte 0 -- -- 39
2019-03-31 16:00:00 19.1 11 Noroeste 23 Noroeste 0 -- -- 39
2019-03-31 15:00:00 20.3 13 Norte 22 Norte 0 -- -- 39
2019-03-31 14:00:00 21.4 8 Norte 21 Norte 0 -- -- 35
2019-03-31 13:00:00 20.2 5 Noroeste 13 Noroeste 0 -- -- 34
2019-03-31 12:00:00 18.6 2 Nordeste 4 Nordeste 0 -- -- 41
2019-03-31 11:00:00 15.1 0 Calma 6 Norte 0 -- -- 58
2019-03-31 10:00:00 10.8 0 Calma 3 Sudoeste 0 -- -- 72
2019-03-31 09:00:00 7.9 0 Calma 8 Noroeste 0 -- -- 87
2019-03-31 08:00:00 7.7 6 Norte 9 Noroeste 0 -- -- 86
2019-03-31 07:00:00 7.7 4 Noroeste 10 Norte 0 -- -- 85
2019-03-31 06:00:00 8.1 7 Norte 12 Noroeste 0 -- -- 84
2019-03-31 05:00:00 8.4 5 Norte 10 Noroeste 0 -- -- 81
2019-03-31 03:00:00 9 10 Norte 17 Norte 0 -- -- 78
2019-03-31 01:00:00 8.8 10 Norte 15 Norte 0 -- -- 79
2019-03-31 00:00:00 9.4 8 Noroeste 12 Noroeste 0 -- -- 76
2019-03-30 23:00:00 10.5 6 Noroeste 11 Noroeste 0 -- -- 71
2019-03-30 22:00:00 12 3 Noroeste 10 Noroeste 0 -- -- 62
2019-03-30 21:00:00 13.3 5 Noroeste 12 Noroeste 0 -- -- 59
2019-03-30 20:00:00 16.5 6 Norte 15 Sur 0 -- -- 45
2019-03-30 19:00:00 20.5 6 Sur 13 Sudeste 0 -- -- 32
2019-03-30 18:00:00 22.3 6 Sur 20 Sudeste 0 -- -- 29
2019-03-30 17:00:00 21.8 10 Este 27 Sudeste 0 -- -- 30
2019-03-30 16:00:00 22.7 10 Sudeste 23 Sur 0 -- -- 30
2019-03-30 15:00:00 22.1 6 Este 24 Sudeste 0 -- -- 29
2019-03-30 14:00:00 21.6 13 Sudeste 31 Este 0 -- -- 33
2019-03-30 13:00:00 21 15 Este 31 Este 0 -- -- 34
2019-03-30 12:00:00 20.1 12 Sudeste 38 Sur 0 -- -- 33
2019-03-30 11:00:00 19.1 12 Sudeste 33 Sur 0 -- -- 35
2019-03-30 10:00:00 17 15 Sur 38 Sudeste 0 -- -- 33
2019-03-30 09:00:00 15.6 15 Sudeste 40 Sudeste 0 -- -- 35
2019-03-30 08:00:00 13.9 16 Sudeste 37 Este 0 -- -- 38
2019-03-30 07:00:00 13.2 19 Sudeste 36 Sudeste 0 -- -- 39
2019-03-30 06:00:00 13.5 15 Sudeste 34 Sudeste 0 -- -- 40
2019-03-30 05:00:00 13.7 15 Sur 41 Este 0 -- -- 41
2019-03-30 04:00:00 13.8 12 Sur 39 Sudeste 0 -- -- 43
2019-03-30 03:00:00 14.4 17 Sur 33 Sur 0 -- -- 43
2019-03-30 02:00:00 14.6 12 Sur 37 Este 0 -- -- 44
2019-03-30 01:00:00 15.1 14 Sur 32 Sur 0 -- -- 44
2019-03-30 00:00:00 15.6 12 Sur 31 Sudeste 0 -- -- 40
2019-03-29 23:00:00 16.5 12 Sur 35 Sudeste 0 -- -- 37
2019-03-29 22:00:00 17.2 13 Sur 34 Sudeste 0 -- -- 34
2019-03-29 21:00:00 17.7 10 Sur 23 Sudeste 0 -- -- 33
2019-03-29 20:00:00 18.3 6 Sur 23 Sudeste 0 -- -- 32
2019-03-29 19:00:00 20 6 Sur 30 Sur 0 -- -- 28
2019-03-29 18:00:00 21.2 14 Sur 35 Sudeste 0 -- -- 27
2019-03-29 17:00:00 21.8 14 Sudeste 37 Sudeste 0 -- -- 26
2019-03-29 16:00:00 22 14 Sur 35 Este 0 -- -- 27
2019-03-29 15:00:00 21.7 13 Sur 42 Sudeste 0 -- -- 31
2019-03-29 14:00:00 21 16 Sur 38 Sudeste 0 -- -- 33
2019-03-29 13:00:00 20.1 15 Sudeste 36 Sudeste 0 -- -- 34
2019-03-29 12:00:00 19.4 11 Este 36 Este 0 -- -- 36
2019-03-29 11:00:00 17.4 15 Sudeste 35 Sudeste 0 -- -- 36
2019-03-29 10:00:00 10.9 2 Nordeste 6 Nordeste 0 -- -- 77
2019-03-29 09:00:00 5.4 0 Calma 4 Norte 0 -- -- 100
2019-03-29 08:00:00 2.4 0 Calma 4 Sudoeste 0 -- -- 100
2019-03-29 07:00:00 1.9 0 Calma 4 Este 0 -- -- 99
2019-03-29 06:00:00 2.1 0 Calma 3 Sur 0 -- -- 99
2019-03-29 05:00:00 2.2 2 Sur 4 Sudeste 0 -- -- 98
2019-03-29 04:00:00 2.5 0 Calma 5 Sudeste 0 -- -- 98
2019-03-29 03:00:00 3.1 0 Calma 4 Sudeste 0 -- -- 97
2019-03-29 02:00:00 3.6 2 Sur 6 Sur 0 -- -- 96
2019-03-29 01:00:00 4.3 2 Sudoeste 4 Sur 0 -- -- 95
2019-03-29 00:00:00 5.2 2 Oeste 7 Este 0 -- -- 93
2019-03-28 23:00:00 6.1 3 Sudeste 5 Sudeste 0 -- -- 91
2019-03-28 22:00:00 7 0 Calma 5 Sudoeste 0 -- -- 88
2019-03-28 21:00:00 8.5 3 Sur 5 Sudeste 0 -- -- 82
2019-03-28 20:00:00 10.3 0 Calma 10 Noroeste 0 -- -- 75
2019-03-28 19:00:00 12.5 2 Noroeste 10 Noroeste 0 -- -- 64
2019-03-28 18:00:00 13.9 3 Noroeste 13 Noroeste 0 -- -- 59
2019-03-28 17:00:00 14.6 8 Noroeste 15 Noroeste 0 -- -- 55
2019-03-28 16:00:00 15.7 4 Noroeste 12 Norte 0 -- -- 53
2019-03-28 15:00:00 15.4 7 Noroeste 21 Noroeste 0 -- -- 54
2019-03-28 14:00:00 15.5 7 Noroeste 18 Norte 0 -- -- 56
2019-03-28 13:00:00 15.9 7 Norte 15 Sudoeste 0 -- -- 60
2019-03-28 12:00:00 16 4 Noroeste 16 Noroeste 0 -- -- 57
2019-03-28 11:00:00 15.5 5 Norte 12 Nordeste 0 -- -- 58
2019-03-28 10:00:00 12.1 2 Sur 5 Nordeste 0 -- -- 78
2019-03-28 09:00:00 7.6 0 Calma 4 Nordeste 0 -- -- 96
2019-03-28 08:00:00 4.3 0 Calma 5 Sur 0 -- -- 99
2019-03-28 07:00:00 4.5 0 Calma 6 Norte 0 -- -- 97
2019-03-28 06:00:00 5.1 2 Oeste 5 Sudeste 0 -- -- 97
2019-03-28 05:00:00 5.9 0 Calma 5 Noroeste 0 -- -- 93
2019-03-28 04:00:00 6.6 3 Norte 5 Norte 0 -- -- 93
2019-03-28 03:00:00 6.6 0 Calma 3 Sudeste 0 -- -- 91
2019-03-28 02:00:00 6.9 0 Calma 5 Norte 0 -- -- 90
2019-03-28 01:00:00 6.9 0 Calma 6 Norte 0 -- -- 88
2019-03-28 00:00:00 7.2 0 Calma 6 Noroeste 0 -- -- 88
2019-03-27 23:00:00 7.2 0 Calma 6 Norte 0 -- -- 88
2019-03-27 22:00:00 7.6 0 Calma 6 Este 0 -- -- 83
2019-03-27 21:00:00 8.4 0 Calma 6 Sudeste 0 -- -- 80
2019-03-27 20:00:00 9.4 3 Sudoeste 9 Sudoeste 0 -- -- 74
2019-03-27 19:00:00 10.8 3 Sudoeste 24 Noroeste 0 -- -- 66
2019-03-27 18:00:00 12.1 8 Noroeste 22 Norte 0 -- -- 62
2019-03-27 17:00:00 12.7 9 Norte 22 Nordeste 0 -- -- 62
2019-03-27 16:00:00 14 6 Norte 22 Norte 0 -- -- 58
2019-03-27 15:00:00 14.4 7 Norte 22 Norte 0 -- -- 48
2019-03-27 14:00:00 15.2 8 Norte 22 Norte 0 -- -- 46
2019-03-27 13:00:00 14.5 8 Noroeste 20 Norte 0 -- -- 45
2019-03-27 12:00:00 13.8 9 Noroeste 17 Noroeste 0 -- -- 47
2019-03-27 11:00:00 13.5 5 Sudoeste 14 Sudoeste 0 -- -- 52
2019-03-27 10:00:00 9.1 2 Norte 4 Sudeste 0 -- -- 74
2019-03-27 09:00:00 4.4 0 Calma 4 Sudeste 0 -- -- 96
2019-03-27 08:00:00 1 0 Calma 4 Sur 0 -- -- 99
2019-03-27 07:00:00 1.1 0 Calma 6 Sur 0 -- -- 97
2019-03-27 06:00:00 1.6 0 Calma 5 Sudeste 0 -- -- 97
2019-03-27 05:00:00 2.2 2 Sur 5 Nordeste 0 -- -- 97
2019-03-27 04:00:00 2.7 2 Sur 5 Sudeste 0 -- -- 97
2019-03-27 03:00:00 3.2 4 Sur 8 Sudeste 0 -- -- 97
2019-03-27 02:00:00 3.5 2 Sudoeste 10 Sudoeste 0 -- -- 98
2019-03-27 01:00:00 3.8 4 Sur 8 Sudoeste 0 -- -- 95
2019-03-27 00:00:00 5.2 0 Calma 5 Sudeste 0 -- -- 92